createdAt,value
2018-03-07T00:00:04.027Z,7.50
2018-03-07T00:02:35.760Z,7.30
2018-03-07T00:05:03.306Z,7.30
2018-03-07T00:07:47.691Z,7.20
2018-03-07T00:10:16.528Z,7.20
2018-03-07T00:12:44.168Z,7.30
2018-03-07T00:15:11.689Z,7.30
2018-03-07T00:17:39.198Z,7.30
2018-03-07T00:20:07.486Z,7.30
2018-03-07T00:22:35.098Z,7.30
2018-03-07T00:25:03.341Z,7.20
2018-03-07T00:27:32.065Z,7.20
2018-03-07T00:30:05.214Z,7.10
2018-03-07T00:33:02.258Z,7.10
2018-03-07T00:35:33.457Z,7.00
2018-03-07T00:38:07.419Z,7.00
2018-03-07T00:40:35.050Z,7.00
2018-03-07T00:43:06.679Z,6.90
2018-03-07T00:45:34.206Z,7.00
2018-03-07T00:48:04.670Z,6.90
2018-03-07T00:50:33.756Z,6.80
2018-03-07T00:53:29.959Z,6.80
2018-03-07T00:56:01.574Z,6.70
2018-03-07T00:58:31.446Z,6.70
2018-03-07T01:01:01.421Z,6.60
2018-03-07T01:03:31.365Z,6.60
2018-03-07T01:06:02.431Z,6.60
2018-03-07T01:08:31.575Z,6.60
2018-03-07T01:11:02.487Z,6.70
2018-03-07T01:13:31.950Z,6.60
2018-03-07T01:16:02.645Z,6.60
2018-03-07T01:18:32.665Z,6.60
2018-03-07T01:21:01.549Z,6.50
2018-03-07T01:23:32.394Z,6.40
2018-03-07T01:26:06.255Z,6.40
2018-03-07T01:28:34.042Z,6.20
2018-03-07T01:31:07.086Z,6.00
2018-03-07T01:33:34.596Z,5.80
2018-03-07T01:36:03.823Z,5.60
2018-03-07T01:38:33.841Z,5.40
2018-03-07T01:41:04.106Z,5.30
2018-03-07T01:43:34.066Z,5.10
2018-03-07T01:46:05.173Z,5.00
2018-03-07T01:48:33.190Z,4.90
2018-03-07T01:51:03.182Z,4.90
2018-03-07T01:53:33.295Z,5.10
2018-03-07T01:56:04.707Z,5.10
2018-03-07T01:58:33.458Z,5.20
2018-03-07T02:01:03.135Z,5.30
2018-03-07T02:03:32.803Z,5.30
2018-03-07T02:06:02.879Z,5.30
2018-03-07T02:08:32.323Z,5.30
2018-03-07T02:11:11.905Z,5.30
2018-03-07T02:13:39.438Z,5.30
2018-03-07T02:16:07.830Z,5.10
2018-03-07T02:18:37.386Z,5.10
2018-03-07T02:21:04.911Z,4.90
2018-03-07T02:23:37.852Z,4.60
2018-03-07T02:26:05.370Z,4.60
2018-03-07T02:28:35.450Z,4.50
2018-03-07T02:31:03.236Z,4.40
2018-03-07T02:33:32.614Z,4.30
2018-03-07T02:36:15.557Z,4.20
2018-03-07T02:38:43.066Z,4.10
2018-03-07T02:41:11.359Z,4.00
2018-03-07T02:43:39.649Z,4.00
2018-03-07T02:46:07.939Z,4.00
2018-03-07T02:48:36.642Z,3.90
2018-03-07T02:51:04.181Z,3.90
2018-03-07T02:53:33.546Z,3.90
2018-03-07T02:56:01.690Z,3.90
2018-03-07T02:58:41.709Z,3.90
2018-03-07T03:01:09.234Z,3.90
2018-03-07T03:03:36.733Z,3.90
2018-03-07T03:06:04.263Z,4.00
2018-03-07T03:08:33.378Z,4.00
2018-03-07T03:11:03.306Z,3.90
2018-03-07T03:13:33.122Z,4.00
2018-03-07T03:16:03.156Z,4.00
2018-03-07T03:18:33.602Z,4.00
2018-03-07T03:21:02.073Z,4.00
2018-03-07T03:23:40.714Z,4.10
2018-03-07T03:26:08.253Z,4.20
2018-03-07T03:28:36.523Z,4.40
2018-03-07T03:31:04.822Z,4.30
2018-03-07T03:33:33.733Z,4.50
2018-03-07T03:36:02.787Z,4.40
2018-03-07T03:38:40.958Z,4.50
2018-03-07T03:41:09.551Z,4.50
2018-03-07T03:43:37.171Z,4.30
2018-03-07T03:46:08.866Z,4.10
2018-03-07T03:48:36.493Z,3.90
2018-03-07T03:51:03.995Z,3.70
2018-03-07T03:53:32.870Z,3.60
2018-03-07T03:56:02.864Z,3.50
2018-03-07T03:58:32.849Z,3.40
2018-03-07T04:01:12.121Z,3.30
2018-03-07T04:03:40.404Z,3.10
2018-03-07T04:06:08.673Z,3.10
2018-03-07T04:08:36.195Z,3.10
2018-03-07T04:13:36.597Z,3.00
2018-03-07T04:16:04.147Z,2.90
2018-03-07T04:18:35.723Z,2.90
2018-03-07T04:21:04.189Z,2.80
2018-03-07T04:23:32.536Z,2.80
2018-03-07T04:26:03.078Z,2.80
2018-03-07T04:28:31.845Z,2.90
2018-03-07T04:31:02.164Z,2.90
2018-03-07T04:33:35.532Z,3.10
2018-03-07T04:36:08.928Z,3.20
2018-03-07T04:38:40.074Z,3.30
2018-03-07T04:41:07.574Z,3.30
2018-03-07T04:43:35.102Z,3.30
2018-03-07T04:46:04.124Z,3.10
2018-03-07T04:48:34.179Z,3.00
2018-03-07T04:51:04.969Z,3.00
2018-03-07T04:53:33.661Z,3.00
2018-03-07T04:56:04.206Z,2.90
2018-03-07T04:58:34.254Z,2.80
2018-03-07T05:01:04.789Z,2.50
2018-03-07T05:03:35.286Z,2.70
2018-03-07T05:06:03.966Z,2.70
2018-03-07T05:08:34.666Z,2.60
2018-03-07T05:11:05.234Z,2.60
2018-03-07T05:13:35.310Z,2.60
2018-03-07T05:16:04.991Z,2.60
2018-03-07T05:18:34.810Z,2.70
2018-03-07T05:21:04.787Z,2.60
2018-03-07T05:23:34.823Z,2.70
2018-03-07T05:26:13.343Z,2.80
2018-03-07T05:28:41.008Z,2.90
2018-03-07T05:31:08.550Z,2.90
2018-03-07T05:33:36.057Z,3.10
2018-03-07T05:36:04.261Z,3.10
2018-03-07T05:38:33.330Z,3.30
2018-03-07T05:41:04.605Z,3.30
2018-03-07T05:43:34.943Z,3.30
2018-03-07T05:46:14.636Z,3.40
2018-03-07T05:48:42.154Z,3.30
2018-03-07T05:51:09.662Z,3.40
2018-03-07T05:53:37.187Z,3.40
2018-03-07T05:56:06.515Z,3.50
2018-03-07T05:58:35.262Z,3.50
2018-03-07T06:01:14.826Z,3.50
2018-03-07T06:03:42.362Z,3.50
2018-03-07T06:06:10.663Z,3.60
2018-03-07T06:08:38.225Z,3.60
2018-03-07T06:11:06.489Z,3.90
2018-03-07T06:13:34.935Z,3.90
2018-03-07T06:16:04.418Z,4.00
2018-03-07T06:18:34.942Z,4.20
2018-03-07T06:21:04.508Z,4.40
2018-03-07T06:23:36.023Z,4.40
2018-03-07T06:26:10.668Z,4.50
2018-03-07T06:28:40.723Z,4.70
2018-03-07T06:31:12.918Z,4.80
2018-03-07T06:33:53.450Z,5.00
2018-03-07T06:36:20.956Z,5.10
2018-03-07T06:38:49.263Z,5.40
2018-03-07T06:41:16.767Z,5.40
2018-03-07T06:43:44.298Z,5.50
2018-03-07T06:46:16.581Z,5.70
2018-03-07T06:48:44.480Z,5.70
2018-03-07T06:51:23.761Z,5.90
2018-03-07T06:53:51.265Z,6.00
2018-03-07T06:56:19.562Z,6.30
2018-03-07T06:58:47.838Z,6.40
2018-03-07T07:01:16.134Z,6.50
2018-03-07T07:03:44.415Z,6.50
2018-03-07T07:06:23.842Z,6.50
2018-03-07T07:08:51.374Z,6.70
2018-03-07T07:11:18.935Z,6.80
2018-03-07T07:13:47.207Z,6.60
2018-03-07T07:16:14.722Z,6.60
2018-03-07T07:18:44.007Z,6.60
2018-03-07T07:21:13.943Z,6.40
2018-03-07T07:23:41.447Z,6.40
2018-03-07T07:26:08.970Z,6.30
2018-03-07T07:28:37.234Z,7.50
2018-03-07T07:31:04.775Z,7.50
2018-03-07T07:33:33.586Z,8.50
2018-03-07T07:36:01.930Z,9.40
2018-03-07T07:38:33.398Z,11.40
2018-03-07T07:41:03.226Z,12.00
2018-03-07T07:43:30.963Z,12.00
2018-03-07T07:46:08.934Z,12.70
2018-03-07T07:48:36.433Z,12.80
2018-03-07T07:51:03.959Z,13.80
2018-03-07T07:53:32.101Z,13.20
2018-03-07T07:56:02.611Z,12.50
2018-03-07T07:58:31.848Z,11.70
2018-03-07T08:01:01.239Z,12.20
2018-03-07T08:03:29.168Z,12.40
2018-03-07T08:05:59.190Z,12.50
2018-03-07T08:08:29.005Z,12.40
2018-03-07T08:10:58.484Z,12.50
2018-03-07T08:13:26.570Z,13.70
2018-03-07T08:15:54.619Z,13.40
2018-03-07T08:18:23.904Z,13.30
2018-03-07T08:20:51.491Z,14.00
2018-03-07T08:23:19.794Z,15.00
2018-03-07T08:25:48.093Z,15.40
2018-03-07T08:28:16.725Z,16.40
2018-03-07T08:30:44.318Z,16.30
2018-03-07T08:33:11.830Z,17.20
2018-03-07T08:35:39.384Z,17.40
2018-03-07T08:38:06.881Z,17.80
2018-03-07T08:40:35.273Z,17.80
2018-03-07T08:43:03.679Z,16.90
2018-03-07T08:45:31.874Z,16.90
2018-03-07T08:47:59.790Z,16.20
2018-03-07T08:50:27.415Z,15.50
2018-03-07T08:52:55.003Z,14.30
2018-03-07T08:55:22.982Z,14.30
2018-03-07T08:58:02.839Z,15.60
2018-03-07T09:00:30.404Z,16.20
2018-03-07T09:02:57.919Z,15.90
2018-03-07T09:05:26.215Z,15.60
2018-03-07T09:07:53.781Z,15.40
2018-03-07T09:10:22.129Z,14.10
2018-03-07T09:12:49.924Z,14.10
2018-03-07T09:15:18.843Z,13.10
2018-03-07T09:17:47.399Z,11.90
2018-03-07T09:20:14.929Z,11.90
2018-03-07T09:22:42.538Z,11.60
2018-03-07T09:25:10.970Z,11.00
2018-03-07T09:27:38.921Z,11.00
2018-03-07T09:30:06.486Z,10.80
2018-03-07T09:32:34.025Z,11.70
2018-03-07T09:35:01.665Z,12.40
2018-03-07T09:37:29.321Z,13.60
2018-03-07T09:39:56.921Z,14.90
2018-03-07T09:42:24.554Z,15.70
2018-03-07T09:44:52.190Z,15.80
2018-03-07T09:47:20.222Z,15.40
2018-03-07T09:49:48.344Z,15.10
2018-03-07T09:52:15.946Z,15.00
2018-03-07T09:54:44.231Z,14.40
2018-03-07T09:57:11.825Z,14.30
2018-03-07T09:59:40.385Z,13.20
2018-03-07T10:02:07.927Z,13.10
2018-03-07T10:04:35.471Z,12.80
2018-03-07T10:07:03.968Z,11.40
2018-03-07T10:09:31.537Z,11.40
2018-03-07T10:11:59.818Z,10.50
2018-03-07T10:14:28.925Z,10.40
2018-03-07T10:16:57.212Z,10.40
2018-03-07T10:19:25.688Z,10.30
2018-03-07T10:21:53.300Z,10.20
2018-03-07T10:24:21.911Z,10.30
2018-03-07T10:26:50.209Z,10.40
2018-03-07T10:29:21.449Z,10.30
2018-03-07T10:31:50.250Z,10.40
2018-03-07T10:34:19.926Z,10.10
2018-03-07T10:36:52.916Z,10.20
2018-03-07T10:39:22.225Z,10.10
2018-03-07T10:41:52.620Z,9.80
2018-03-07T10:44:21.968Z,9.60
2018-03-07T10:46:53.304Z,9.80
2018-03-07T10:49:23.006Z,9.60
2018-03-07T10:51:54.183Z,9.70
2018-03-07T10:54:24.875Z,9.20
2018-03-07T10:56:55.087Z,9.00
2018-03-07T10:59:35.478Z,8.80
2018-03-07T11:02:03.013Z,8.80
2018-03-07T11:04:30.517Z,8.60
2018-03-07T11:06:59.083Z,8.50
2018-03-07T11:09:27.445Z,8.40
2018-03-07T11:11:57.985Z,8.70
2018-03-07T11:14:26.760Z,8.60
2018-03-07T11:16:56.863Z,8.70
2018-03-07T11:19:27.955Z,8.80
2018-03-07T11:22:06.498Z,8.80
2018-03-07T11:24:34.779Z,8.50
2018-03-07T11:27:03.082Z,8.50
2018-03-07T11:29:31.371Z,8.60
2018-03-07T11:31:59.635Z,8.60
2018-03-07T11:34:28.344Z,8.60
2018-03-07T11:36:58.099Z,8.70
2018-03-07T11:39:28.158Z,8.60
2018-03-07T11:41:56.562Z,8.70
2018-03-07T11:44:27.140Z,8.90
2018-03-07T11:46:55.842Z,9.10
2018-03-07T11:49:27.961Z,9.50
2018-03-07T11:51:58.530Z,9.50
2018-03-07T11:54:28.235Z,9.50
2018-03-07T11:56:57.939Z,9.70
2018-03-07T11:59:38.454Z,9.50
2018-03-07T12:02:05.960Z,9.30
2018-03-07T12:04:34.248Z,9.50
2018-03-07T12:07:02.567Z,9.60
2018-03-07T12:09:30.082Z,9.60
2018-03-07T12:11:58.826Z,9.60
2018-03-07T12:14:31.334Z,9.40
2018-03-07T12:16:59.498Z,9.40
2018-03-07T12:19:29.297Z,9.50
2018-03-07T12:21:58.390Z,9.50
2018-03-07T12:24:28.066Z,9.50
2018-03-07T12:26:58.843Z,9.50
2018-03-07T12:29:28.227Z,9.50
2018-03-07T12:31:58.842Z,9.80
2018-03-07T12:34:28.813Z,9.70
2018-03-07T12:37:03.324Z,10.10
2018-03-07T12:39:30.858Z,10.40
2018-03-07T12:41:58.990Z,10.90
2018-03-07T12:44:29.088Z,11.30
2018-03-07T12:46:59.849Z,11.20
2018-03-07T12:49:30.002Z,11.50
2018-03-07T12:52:00.218Z,11.80
2018-03-07T12:54:30.202Z,11.70
2018-03-07T12:57:03.350Z,11.70
2018-03-07T12:59:30.957Z,11.60
2018-03-07T13:02:00.111Z,11.70
2018-03-07T13:04:29.003Z,11.60
2018-03-07T13:06:58.870Z,11.50
2018-03-07T13:09:39.646Z,11.20
2018-03-07T13:12:07.156Z,11.20
2018-03-07T13:14:34.722Z,11.10
2018-03-07T13:17:02.238Z,11.10
2018-03-07T13:19:31.151Z,11.20
2018-03-07T13:22:00.296Z,11.30
2018-03-07T13:24:28.450Z,11.30
2018-03-07T13:27:07.885Z,11.20
2018-03-07T13:29:35.529Z,11.20
2018-03-07T13:32:03.092Z,11.20
2018-03-07T13:34:39.244Z,10.80
2018-03-07T13:37:07.062Z,10.70
2018-03-07T13:39:35.362Z,10.40
2018-03-07T13:42:02.871Z,10.40
2018-03-07T13:44:31.531Z,10.40
2018-03-07T13:47:04.955Z,10.40
2018-03-07T13:49:37.046Z,10.30
2018-03-07T13:52:06.539Z,10.20
2018-03-07T13:54:34.932Z,10.20
2018-03-07T13:57:09.322Z,10.10
2018-03-07T13:59:36.854Z,10.10
2018-03-07T14:02:05.146Z,10.00
2018-03-07T14:04:33.438Z,9.90
2018-03-07T14:07:01.707Z,9.80
2018-03-07T14:09:36.703Z,9.80
2018-03-07T14:12:04.263Z,9.70
2018-03-07T14:14:32.570Z,9.70
2018-03-07T14:17:08.230Z,9.70
2018-03-07T14:19:36.523Z,9.60
2018-03-07T14:22:04.794Z,9.70
2018-03-07T14:24:37.823Z,9.70
2018-03-07T14:27:09.490Z,9.80
2018-03-07T14:29:37.078Z,9.80
2018-03-07T14:32:04.593Z,9.80
2018-03-07T14:34:32.130Z,9.80
2018-03-07T14:37:00.975Z,9.90
2018-03-07T14:39:30.074Z,9.80
2018-03-07T14:42:05.501Z,9.90
2018-03-07T14:44:37.589Z,9.90
2018-03-07T14:47:06.262Z,9.90
2018-03-07T14:49:39.790Z,9.90
2018-03-07T14:52:07.322Z,9.80
2018-03-07T14:54:42.138Z,9.80
2018-03-07T14:57:09.646Z,9.70
2018-03-07T14:59:37.982Z,9.70
2018-03-07T15:02:11.911Z,9.60
2018-03-07T15:04:40.174Z,9.70
2018-03-07T15:07:08.419Z,9.60
2018-03-07T15:09:36.690Z,9.50
2018-03-07T15:12:11.906Z,9.50
2018-03-07T15:14:39.399Z,9.50
2018-03-07T15:17:06.911Z,9.50
2018-03-07T15:19:35.187Z,9.50
2018-03-07T15:22:03.472Z,9.50
2018-03-07T15:24:30.968Z,9.60
2018-03-07T15:27:01.423Z,9.60
2018-03-07T15:29:34.355Z,9.60
2018-03-07T15:32:02.622Z,9.60
2018-03-07T15:34:31.627Z,9.60
2018-03-07T15:37:02.686Z,9.60
2018-03-07T15:39:31.351Z,9.70
2018-03-07T15:42:00.737Z,9.70
2018-03-07T15:44:31.618Z,9.60
2018-03-07T15:47:01.518Z,9.60
2018-03-07T15:49:30.524Z,9.50
2018-03-07T15:52:01.790Z,9.40
2018-03-07T15:54:31.865Z,9.30
2018-03-07T15:57:03.238Z,9.30
2018-03-07T15:59:31.714Z,9.20
2018-03-07T16:02:22.680Z,9.10
2018-03-07T16:04:59.542Z,9.10
2018-03-07T16:07:30.398Z,9.00
2018-03-07T16:09:59.734Z,9.00
2018-03-07T16:12:35.130Z,8.90
2018-03-07T16:15:03.370Z,8.90
2018-03-07T16:17:31.766Z,8.90
2018-03-07T16:20:01.982Z,8.90
2018-03-07T16:22:30.151Z,8.90
2018-03-07T16:25:00.495Z,8.90
2018-03-07T16:27:38.683Z,8.90
2018-03-07T16:30:06.255Z,8.90
2018-03-07T16:32:33.779Z,8.80
2018-03-07T16:35:01.278Z,8.80
2018-03-07T16:37:30.714Z,8.70
2018-03-07T16:40:03.052Z,8.70
2018-03-07T16:42:32.174Z,8.30
2018-03-07T16:45:00.439Z,8.20
2018-03-07T16:47:32.410Z,8.10
2018-03-07T16:49:59.910Z,7.90
2018-03-07T16:52:29.817Z,7.70
2018-03-07T16:54:58.818Z,7.70
2018-03-07T16:57:28.710Z,7.60
2018-03-07T17:00:00.204Z,7.50
2018-03-07T17:02:43.662Z,7.40
2018-03-07T17:05:11.210Z,7.40
2018-03-07T17:07:38.730Z,7.20
2018-03-07T17:10:10.864Z,7.20
2018-03-07T17:12:48.648Z,7.10
2018-03-07T17:15:19.794Z,7.10
2018-03-07T17:17:49.612Z,7.00
2018-03-07T17:20:20.686Z,7.00
2018-03-07T17:22:48.207Z,7.00
2018-03-07T17:25:15.705Z,6.90
2018-03-07T17:27:43.998Z,6.80
2018-03-07T17:30:16.074Z,6.80
2018-03-07T17:32:49.023Z,6.80
2018-03-07T17:35:19.119Z,6.80
2018-03-07T17:37:49.766Z,6.70
2018-03-07T17:40:19.610Z,6.60
2018-03-07T17:42:49.102Z,6.60
2018-03-07T17:45:18.971Z,6.60
2018-03-07T17:47:49.249Z,6.60
2018-03-07T17:50:27.654Z,6.50
2018-03-07T17:52:55.171Z,6.50
2018-03-07T17:55:22.734Z,6.50
2018-03-07T17:57:50.252Z,6.50
2018-03-07T18:00:19.335Z,6.50
2018-03-07T18:02:47.670Z,6.40
2018-03-07T18:05:18.341Z,6.40
2018-03-07T18:07:58.071Z,6.40
2018-03-07T18:10:25.574Z,6.30
2018-03-07T18:12:53.879Z,6.30
2018-03-07T18:15:21.389Z,6.30
2018-03-07T18:17:49.242Z,6.30
2018-03-07T18:20:17.378Z,6.30
2018-03-07T18:22:46.972Z,6.30
2018-03-07T18:25:16.781Z,6.30
2018-03-07T18:27:46.259Z,6.30
2018-03-07T18:30:16.098Z,6.30
2018-03-07T18:32:46.779Z,6.20
2018-03-07T18:35:17.837Z,6.20
2018-03-07T18:37:48.431Z,6.20
2018-03-07T18:40:17.650Z,6.20
2018-03-07T18:42:48.926Z,6.20
2018-03-07T18:45:20.315Z,6.10
2018-03-07T18:47:50.313Z,6.10
2018-03-07T18:50:19.875Z,6.10
2018-03-07T18:52:58.266Z,6.00
2018-03-07T18:55:26.536Z,5.90
2018-03-07T18:57:54.133Z,5.90
2018-03-07T19:00:25.003Z,5.90
2018-03-07T19:02:54.710Z,5.90
2018-03-07T19:05:22.990Z,5.90
2018-03-07T19:07:55.890Z,5.90
2018-03-07T19:10:24.178Z,5.90
2018-03-07T19:12:52.438Z,5.90
2018-03-07T19:15:20.188Z,5.90
2018-03-07T19:17:49.386Z,5.90
2018-03-07T19:20:21.742Z,5.90
2018-03-07T19:22:50.197Z,5.90
2018-03-07T19:25:18.038Z,5.90
2018-03-07T19:27:45.570Z,5.90
2018-03-07T19:30:14.330Z,5.90
2018-03-07T19:32:46.265Z,5.90
2018-03-07T19:35:18.789Z,5.80
2018-03-07T19:37:48.191Z,5.80
2018-03-07T19:40:17.983Z,5.80
2018-03-07T19:42:48.829Z,5.80
2018-03-07T19:45:22.821Z,5.80
2018-03-07T19:47:51.558Z,5.80
2018-03-07T19:50:20.322Z,5.80
2018-03-07T19:52:50.129Z,5.80
2018-03-07T19:55:20.111Z,5.80
2018-03-07T19:57:50.106Z,5.80
2018-03-07T20:00:20.127Z,5.80
2018-03-07T20:02:50.334Z,5.80
2018-03-07T20:05:20.330Z,5.90
2018-03-07T20:07:51.119Z,5.80
2018-03-07T20:10:19.470Z,5.80
2018-03-07T20:12:50.545Z,5.90
2018-03-07T20:15:21.342Z,5.90
2018-03-07T20:17:50.329Z,5.90
2018-03-07T20:20:21.001Z,6.00
2018-03-07T20:22:49.550Z,5.90
2018-03-07T20:25:23.131Z,6.00
2018-03-07T20:27:51.771Z,6.00
2018-03-07T20:30:20.461Z,6.00
2018-03-07T20:32:51.460Z,6.10
2018-03-07T20:35:20.349Z,6.10
2018-03-07T20:37:50.153Z,6.10
2018-03-07T20:40:21.530Z,6.10
2018-03-07T20:42:50.495Z,6.10
2018-03-07T20:45:20.570Z,6.10
2018-03-07T20:47:51.318Z,6.10
2018-03-07T20:50:31.037Z,6.10
2018-03-07T20:53:00.092Z,6.10
2018-03-07T20:55:27.642Z,5.90
2018-03-07T20:57:55.170Z,5.80
2018-03-07T21:00:22.688Z,5.70
2018-03-07T21:02:51.444Z,5.70
2018-03-07T21:05:21.260Z,5.50
2018-03-07T21:07:50.260Z,5.40
2018-03-07T21:10:20.214Z,5.30
2018-03-07T21:12:51.246Z,5.30
2018-03-07T21:15:20.278Z,5.10
2018-03-07T21:17:50.066Z,5.10
2018-03-07T21:20:20.482Z,5.00
2018-03-07T21:22:50.426Z,5.00
2018-03-07T21:25:21.514Z,4.90
2018-03-07T21:27:50.458Z,4.90
2018-03-07T21:30:19.555Z,4.90
2018-03-07T21:32:50.546Z,4.90
2018-03-07T21:35:20.643Z,4.90
2018-03-07T21:37:51.302Z,4.90
2018-03-07T21:40:30.599Z,4.90
2018-03-07T21:42:58.114Z,4.90
2018-03-07T21:45:26.409Z,4.90
2018-03-07T21:47:54.697Z,4.90
2018-03-07T21:50:23.000Z,5.00
2018-03-07T21:52:50.650Z,4.90
2018-03-07T21:55:29.646Z,5.00
2018-03-07T21:57:57.283Z,5.00
2018-03-07T22:00:25.555Z,5.00
2018-03-07T22:02:53.082Z,5.00
2018-03-07T22:05:21.562Z,5.10
2018-03-07T22:07:50.773Z,5.10
2018-03-07T22:10:20.238Z,5.10
2018-03-07T22:12:50.006Z,5.10
2018-03-07T22:15:29.666Z,5.20
2018-03-07T22:17:57.958Z,5.20
2018-03-07T22:20:26.230Z,5.20
2018-03-07T22:22:54.328Z,5.10
2018-03-07T22:25:22.602Z,5.10
2018-03-07T22:27:50.654Z,5.10
2018-03-07T22:30:19.771Z,5.10
2018-03-07T22:32:49.735Z,5.10
2018-03-07T22:35:19.811Z,5.10
2018-03-07T22:37:59.663Z,5.10
2018-03-07T22:40:27.219Z,5.10
2018-03-07T22:42:54.747Z,5.10
2018-03-07T22:45:22.338Z,5.10
2018-03-07T22:47:50.427Z,5.10
2018-03-07T22:50:20.321Z,5.20
2018-03-07T22:52:58.775Z,5.20
2018-03-07T22:55:26.296Z,5.20
2018-03-07T22:57:53.841Z,5.20
2018-03-07T23:00:27.971Z,5.30
2018-03-07T23:02:56.263Z,5.30
2018-03-07T23:05:23.826Z,5.30
2018-03-07T23:07:52.106Z,5.30
2018-03-07T23:10:19.798Z,5.30
2018-03-07T23:12:48.713Z,5.30
2018-03-07T23:15:17.975Z,5.30
2018-03-07T23:17:46.440Z,5.30
2018-03-07T23:20:15.242Z,5.30
2018-03-07T23:22:45.398Z,5.30
2018-03-07T23:25:15.227Z,5.30
2018-03-07T23:27:44.985Z,5.40
2018-03-07T23:30:14.566Z,5.40
2018-03-07T23:32:45.510Z,5.40
2018-03-07T23:35:16.311Z,5.40
2018-03-07T23:37:56.318Z,5.40
2018-03-07T23:40:23.843Z,5.40
2018-03-07T23:42:52.134Z,5.40
2018-03-07T23:45:19.846Z,5.40
2018-03-07T23:47:48.886Z,5.30
2018-03-07T23:50:18.086Z,5.40
2018-03-07T23:52:49.245Z,5.40
2018-03-07T23:55:19.346Z,5.40
2018-03-07T23:57:49.243Z,5.40
